Terminal Aerodrome Forecast
Issued by NWS

Home | Current Version | Previous Version | Graphics & Text | Print | Product List | Glossary On
Versions: 1 2 3 4 5 6 7 8 9 10 11 12 13 14 15 16 17 18 19 20 21 22
000
FTUS43 KBIS 250200 AAA
TAFDIK
TAF AMD
KDIK 250240Z 2503/2524 27010KT P6SM BKN060
      TEMPO 2503/2506 BKN020
     FM251400 21007KT 3SM -SN OVC012
     FM251600 25012KT 1SM -SN OVC007
     FM251900 29016G24KT 5SM -SN OVC011=

USA.gov is the U.S. government's official web portal to all federal, state and local government web resources and services.